Time;durP1;ratioP1;P1;durP2;ratioP2;P2;SDS_P1;SDS_P2;PMS_P1;PMS_P2;Temp;Humidity;BMP_temperature;BMP_pressure;BME280_temperature;BME280_humidity;BME280_pressure;Samples;Min_cycle;Max_cycle;Signal;HPM_P1;HPM_P2
2023/06/05 00:00:39;;;;;;;2.83;1.40;;;14.50;82.90;;;;;;4935074;29;20532;-69
2023/06/05 00:03:04;;;;;;;5.57;2.10;;;14.50;84.40;;;;;;4935328;29;20227;-68
2023/06/05 00:05:31;;;;;;;1.80;1.23;;;14.40;85.60;;;;;;4935243;29;20867;-68
2023/06/05 00:07:56;;;;;;;4.13;1.57;;;14.40;89.50;;;;;;4935228;29;20521;-68
2023/06/05 00:10:22;;;;;;;1.63;1.40;;;14.40;91.00;;;;;;4934985;29;20414;-67
2023/06/05 00:12:48;;;;;;;1.97;1.80;;;14.40;91.70;;;;;;4934950;29;20664;-68
2023/06/05 00:15:13;;;;;;;1.70;1.40;;;14.40;92.20;;;;;;4935034;29;20179;-68
2023/06/05 00:17:39;;;;;;;2.27;1.00;;;14.30;92.70;;;;;;4935023;29;20251;-68
2023/06/05 00:20:05;;;;;;;1.40;1.30;;;14.30;92.20;;;;;;4935100;29;20199;-68
2023/06/05 00:22:33;;;;;;;2.30;1.60;;;14.30;92.70;;;;;;4934900;29;20199;-68
2023/06/05 00:24:59;;;;;;;1.77;1.40;;;14.20;91.80;;;;;;4935029;29;20906;-68
2023/06/05 00:27:24;;;;;;;1.60;1.50;;;14.20;91.60;;;;;;4934867;29;20411;-68
2023/06/05 00:29:50;;;;;;;3.23;1.83;;;14.20;91.90;;;;;;4934738;29;20204;-68
2023/06/05 00:32:16;;;;;;;2.93;1.80;;;14.10;92.60;;;;;;4934445;29;20187;-69
2023/06/05 00:34:41;;;;;;;1.27;1.17;;;14.10;92.40;;;;;;4934738;29;20210;-68
2023/06/05 00:37:07;;;;;;;2.17;1.60;;;14.10;93.50;;;;;;4934700;29;20262;-68
2023/06/05 00:39:32;;;;;;;1.87;1.63;;;14.00;94.40;;;;;;4934804;29;20175;-68
2023/06/05 00:41:58;;;;;;;1.60;1.50;;;14.00;94.30;;;;;;4934484;29;20191;-69
2023/06/05 00:44:24;;;;;;;1.90;1.10;;;14.00;94.50;;;;;;4934679;29;20171;-68
2023/06/05 00:46:51;;;;;;;1.97;1.70;;;14.00;95.90;;;;;;4917591;29;20178;-68
2023/06/05 00:49:18;;;;;;;1.40;1.10;;;13.90;96.80;;;;;;4934620;29;20663;-68
2023/06/05 00:51:45;;;;;;;2.40;1.70;;;13.90;96.60;;;;;;4934366;29;20430;-69
2023/06/05 00:54:13;;;;;;;2.57;1.40;;;13.90;98.30;;;;;;4934724;29;20442;-67
2023/06/05 00:56:40;;;;;;;2.40;2.20;;;13.90;98.20;;;;;;4934581;29;20823;-68
2023/06/05 00:59:07;;;;;;;2.03;1.33;;;13.80;98.50;;;;;;4934708;29;20435;-68
2023/06/05 01:01:34;;;;;;;2.57;1.60;;;13.80;98.80;;;;;;4933935;29;20986;-68
2023/06/05 01:04:03;;;;;;;1.67;1.10;;;13.80;99.90;;;;;;4917359;29;20924;-68
2023/06/05 01:06:34;;;;;;;2.03;1.60;;;13.70;99.90;;;;;;4937775;29;20419;-69
2023/06/05 01:09:00;;;;;;;1.90;1.57;;;13.70;99.90;;;;;;4938523;29;20818;-69
2023/06/05 01:11:52;;;;;;;1.67;1.50;;;13.70;99.90;;;;;;4938116;29;20434;-68
2023/06/05 01:14:32;;;;;;;1.60;1.50;;;13.70;99.90;;;;;;4938283;29;20434;-70
2023/06/05 01:17:00;;;;;;;1.80;1.40;;;13.60;99.90;;;;;;4938085;29;20462;-68
2023/06/05 01:19:28;;;;;;;1.50;1.20;;;13.60;99.90;;;;;;4938219;29;20410;-68
2023/06/05 01:21:55;;;;;;;1.77;1.37;;;13.60;99.90;;;;;;4937805;29;20430;-69
2023/06/05 01:24:22;;;;;;;3.17;1.50;;;13.50;99.90;;;;;;4938171;29;20406;-68
2023/06/05 01:27:07;;;;;;;1.97;1.30;;;13.50;99.90;;;;;;4938134;29;20420;-67
2023/06/05 01:29:48;;;;;;;1.60;1.50;;;13.50;99.90;;;;;;4938055;29;20454;-68
2023/06/05 01:32:18;;;;;;;2.43;1.20;;;13.40;99.90;;;;;;4937690;29;20428;-69
2023/06/05 01:34:48;;;;;;;1.40;1.30;;;13.40;99.90;;;;;;4920783;29;20414;-68
2023/06/05 01:37:18;;;;;;;1.83;1.50;;;13.30;99.90;;;;;;4937791;29;20465;-68
2023/06/05 01:39:46;;;;;;;1.97;1.47;;;13.30;99.90;;;;;;4937860;29;20970;-68
2023/06/05 01:42:13;;;;;;;2.40;1.83;;;13.30;99.90;;;;;;4937561;29;20458;-67
2023/06/05 01:44:40;;;;;;;2.80;1.67;;;13.30;99.90;;;;;;4937758;29;20458;-67
2023/06/05 01:47:07;;;;;;;1.73;1.30;;;13.20;99.90;;;;;;4937822;29;20402;-68
2023/06/05 01:49:33;;;;;;;2.43;1.80;;;13.20;99.90;;;;;;4937597;29;20402;-68
2023/06/05 01:51:59;;;;;;;2.90;1.67;;;13.20;99.90;;;;;;4937357;29;20846;-69
2023/06/05 01:54:26;;;;;;;2.30;1.60;;;13.10;99.90;;;;;;4937624;29;20419;-68
2023/06/05 01:56:52;;;;;;;1.97;1.77;;;13.10;99.90;;;;;;4937478;29;20205;-69
2023/06/05 01:59:18;;;;;;;1.93;1.63;;;13.10;99.90;;;;;;4937567;29;20402;-69
2023/06/05 02:01:44;;;;;;;2.47;1.53;;;13.10;99.90;;;;;;4937195;29;20415;-69
2023/06/05 02:04:10;;;;;;;1.93;1.57;;;13.00;99.90;;;;;;4937296;29;20744;-69
2023/06/05 02:06:42;;;;;;;2.10;1.60;;;13.00;99.90;;;;;;4937518;29;20643;-68
2023/06/05 02:09:10;;;;;;;2.07;1.73;;;13.00;99.90;;;;;;4937378;29;20418;-69
2023/06/05 02:11:37;;;;;;;1.50;1.30;;;13.00;99.90;;;;;;4937024;29;20439;-68
2023/06/05 02:14:03;;;;;;;3.40;2.13;;;12.90;99.90;;;;;;4937092;29;20534;-69
2023/06/05 02:16:29;;;;;;;1.23;1.10;;;12.90;99.90;;;;;;4934717;29;20469;-67
2023/06/05 02:18:57;;;;;;;3.17;1.67;;;12.80;99.90;;;;;;4937078;29;20799;-69
2023/06/05 02:21:23;;;;;;;2.67;1.63;;;12.90;99.90;;;;;;4936914;29;20193;-70
2023/06/05 02:23:49;;;;;;;3.73;1.80;;;12.80;99.90;;;;;;4937032;29;20524;-68
2023/06/05 02:26:17;;;;;;;1.77;1.63;;;12.80;99.90;;;;;;4937126;29;20411;-69
2023/06/05 02:28:43;;;;;;;4.10;1.50;;;12.80;99.90;;;;;;4937038;29;20892;-67
2023/06/05 02:31:15;;;;;;;2.27;1.47;;;12.70;99.90;;;;;;4936627;29;20423;-69
2023/06/05 02:33:41;;;;;;;2.30;1.60;;;12.70;99.90;;;;;;4936979;29;20411;-69
2023/06/05 02:36:07;;;;;;;1.90;1.50;;;12.70;99.90;;;;;;4936683;29;20454;-69
2023/06/05 02:38:33;;;;;;;1.97;1.50;;;12.70;99.90;;;;;;4936738;29;20167;-69
2023/06/05 02:40:59;;;;;;;2.43;1.70;;;12.60;99.90;;;;;;4936445;29;20179;-69
2023/06/05 02:43:25;;;;;;;3.17;1.93;;;12.60;99.90;;;;;;4936911;29;20403;-68
2023/06/05 02:45:50;;;;;;;2.30;1.80;;;12.60;99.90;;;;;;4936593;29;21008;-68
2023/06/05 02:48:16;;;;;;;1.67;1.43;;;12.60;99.90;;;;;;4936606;29;20206;-68
2023/06/05 02:50:42;;;;;;;2.23;1.67;;;12.60;99.90;;;;;;4936302;29;20520;-68
2023/06/05 02:53:07;;;;;;;1.67;1.47;;;12.50;99.90;;;;;;4936566;29;20195;-69
2023/06/05 02:55:32;;;;;;;2.37;2.00;;;12.50;99.90;;;;;;4936345;29;20240;-69
2023/06/05 02:57:58;;;;;;;5.83;2.37;;;12.50;99.90;;;;;;4936514;29;20178;-69
2023/06/05 03:00:26;;;;;;;2.17;1.87;;;12.50;99.90;;;;;;4936230;29;20656;-69
2023/06/05 03:02:51;;;;;;;4.50;2.40;;;12.40;99.90;;;;;;4936340;29;20187;-68
2023/06/05 03:05:18;;;;;;;2.60;1.87;;;12.40;99.90;;;;;;4919577;29;20418;-69
2023/06/05 03:07:43;;;;;;;2.23;1.77;;;12.40;99.90;;;;;;4936374;29;20174;-69
2023/06/05 03:10:09;;;;;;;2.20;2.00;;;12.40;99.90;;;;;;4936225;29;20411;-68
2023/06/05 03:12:35;;;;;;;2.37;2.17;;;12.40;99.90;;;;;;4935775;29;20658;-68
2023/06/05 03:15:01;;;;;;;4.30;3.00;;;12.30;99.90;;;;;;4936093;29;20203;-68
2023/06/05 03:17:27;;;;;;;4.47;2.10;;;12.40;99.90;;;;;;4935990;29;20277;-68
2023/06/05 03:19:52;;;;;;;3.10;2.80;;;12.30;99.90;;;;;;4936087;29;20410;-69
2023/06/05 03:22:18;;;;;;;4.33;2.50;;;12.30;99.90;;;;;;4935667;29;20458;-69
2023/06/05 03:24:45;;;;;;;3.80;1.83;;;12.30;99.90;;;;;;4936050;29;20198;-69
2023/06/05 03:27:10;;;;;;;1.70;1.60;;;12.30;99.90;;;;;;4935930;29;20179;-69
2023/06/05 03:29:36;;;;;;;2.80;2.20;;;12.30;99.90;;;;;;4935681;29;20844;-69
2023/06/05 03:32:01;;;;;;;4.37;2.40;;;12.30;99.90;;;;;;4935453;29;20226;-69
2023/06/05 03:34:27;;;;;;;7.10;2.50;;;12.30;99.90;;;;;;4935829;29;20262;-68
2023/06/05 03:36:52;;;;;;;2.83;2.20;;;12.30;99.90;;;;;;4935819;29;20199;-69
2023/06/05 03:39:18;;;;;;;4.50;2.30;;;12.30;99.90;;;;;;4935988;29;20536;-68
2023/06/05 03:41:44;;;;;;;3.90;2.10;;;12.30;99.90;;;;;;4935246;29;20187;-67
2023/06/05 03:44:09;;;;;;;3.10;2.20;;;12.30;99.90;;;;;;4935757;29;20227;-68
2023/06/05 03:46:35;;;;;;;2.00;1.77;;;12.30;99.90;;;;;;4935528;29;20175;-68
2023/06/05 03:49:05;;;;;;;2.50;1.93;;;12.30;99.90;;;;;;4935731;29;20177;-69
2023/06/05 03:51:30;;;;;;;5.33;2.20;;;12.30;99.90;;;;;;4935101;29;20431;-69
2023/06/05 03:53:58;;;;;;;3.80;2.23;;;12.40;99.90;;;;;;4935508;29;20407;-68
2023/06/05 03:56:49;;;;;;;7.00;2.20;;;12.40;99.90;;;;;;4935432;29;20254;-67
2023/06/05 03:59:19;;;;;;;2.77;1.80;;;12.40;99.90;;;;;;4935473;29;20490;-68
2023/06/05 04:01:45;;;;;;;3.50;2.10;;;12.40;99.90;;;;;;4934948;29;20423;-68
2023/06/05 04:04:11;;;;;;;2.70;2.13;;;12.50;99.90;;;;;;4918353;29;20436;-68
2023/06/05 04:06:36;;;;;;;1.73;1.53;;;12.50;99.90;;;;;;4935278;29;20431;-68
2023/06/05 04:09:09;;;;;;;3.20;2.30;;;12.50;99.90;;;;;;4935136;29;20191;-68
2023/06/05 04:11:34;;;;;;;2.90;2.60;;;12.60;99.90;;;;;;4934948;29;20205;-68
2023/06/05 04:14:00;;;;;;;3.37;2.67;;;12.60;99.90;;;;;;4934948;29;20434;-67
2023/06/05 04:16:25;;;;;;;3.10;2.80;;;12.70;99.90;;;;;;4934996;29;20202;-68
2023/06/05 04:18:52;;;;;;;5.00;2.57;;;12.70;99.90;;;;;;4935070;29;20207;-68
2023/06/05 04:21:17;;;;;;;2.97;2.67;;;12.70;99.90;;;;;;4934605;29;20517;-68
2023/06/05 04:23:43;;;;;;;4.03;2.63;;;12.80;99.90;;;;;;4934830;29;20177;-68
2023/06/05 04:26:09;;;;;;;3.23;2.80;;;12.80;99.90;;;;;;4935032;29;20175;-68
2023/06/05 04:28:35;;;;;;;2.33;2.00;;;12.90;99.90;;;;;;4934967;29;20442;-68
2023/06/05 04:31:01;;;;;;;2.10;1.90;;;12.90;99.90;;;;;;4934577;29;20175;-68
2023/06/05 04:33:27;;;;;;;2.50;2.13;;;13.00;99.90;;;;;;4934838;29;20170;-69
2023/06/05 04:35:53;;;;;;;4.73;2.70;;;13.00;99.90;;;;;;4934764;29;20454;-69
2023/06/05 04:38:20;;;;;;;3.20;2.43;;;13.10;99.90;;;;;;4934743;29;20228;-69
2023/06/05 04:40:50;;;;;;;6.10;2.83;;;13.20;99.90;;;;;;4934010;29;20164;-68
2023/06/05 04:43:16;;;;;;;2.50;2.27;;;13.20;99.90;;;;;;4934697;29;20431;-69
2023/06/05 04:45:41;;;;;;;3.30;2.50;;;13.30;99.90;;;;;;4934563;29;20461;-68
2023/06/05 04:48:08;;;;;;;2.87;2.37;;;13.40;99.90;;;;;;4934452;29;20410;-68
2023/06/05 04:50:35;;;;;;;3.30;2.83;;;13.50;99.90;;;;;;4934516;29;20250;-68
2023/06/05 04:53:01;;;;;;;3.67;2.63;;;13.50;99.90;;;;;;4934621;29;20430;-68
2023/06/05 04:55:27;;;;;;;3.23;2.27;;;13.60;99.90;;;;;;4934533;29;20421;-68
2023/06/05 04:57:53;;;;;;;3.53;2.33;;;13.70;99.90;;;;;;4934695;29;20892;-69
2023/06/05 05:00:19;;;;;;;3.07;2.33;;;13.80;99.90;;;;;;4934658;29;20245;-68
2023/06/05 05:02:44;;;;;;;2.80;1.83;;;13.80;99.90;;;;;;4934226;29;20429;-69
2023/06/05 05:05:13;;;;;;;3.97;2.60;;;13.90;99.90;;;;;;4934571;29;20410;-69
2023/06/05 05:07:40;;;;;;;2.60;2.37;;;14.00;99.90;;;;;;4934609;29;20621;-69
2023/06/05 05:10:06;;;;;;;3.17;2.80;;;14.10;99.90;;;;;;4934610;29;20854;-68
2023/06/05 05:12:32;;;;;;;3.00;2.57;;;14.20;99.90;;;;;;4934306;29;20811;-69
2023/06/05 05:14:58;;;;;;;6.73;2.20;;;14.30;99.90;;;;;;4934353;29;20478;-69
2023/06/05 05:17:23;;;;;;;4.87;3.30;;;14.40;99.90;;;;;;4934277;29;20450;-69
2023/06/05 05:19:49;;;;;;;2.53;2.33;;;14.50;99.90;;;;;;4934430;29;20218;-69
2023/06/05 05:22:14;;;;;;;4.87;2.67;;;14.60;99.90;;;;;;4934307;29;20608;-69
2023/06/05 05:24:40;;;;;;;3.10;2.80;;;14.70;99.90;;;;;;4933188;29;20175;-68
2023/06/05 05:27:06;;;;;;;2.90;2.40;;;14.80;99.90;;;;;;4934471;29;20218;-68
2023/06/05 05:29:33;;;;;;;8.97;2.97;;;15.00;99.90;;;;;;4934347;29;20421;-69
2023/06/05 05:31:58;;;;;;;3.90;2.57;;;15.10;99.90;;;;;;4934122;29;20202;-69
2023/06/05 05:34:24;;;;;;;2.93;2.30;;;15.20;99.90;;;;;;4934319;29;20411;-67
2023/06/05 05:36:49;;;;;;;3.80;2.40;;;15.40;99.90;;;;;;4934319;29;20754;-69
2023/06/05 05:39:15;;;;;;;2.60;2.30;;;15.50;99.90;;;;;;4934423;29;20174;-69
2023/06/05 05:41:41;;;;;;;5.93;3.37;;;15.60;99.90;;;;;;4933914;29;20190;-69
2023/06/05 05:44:07;;;;;;;4.47;2.87;;;15.70;99.90;;;;;;4934255;29;20164;-68
2023/06/05 05:46:33;;;;;;;3.57;2.47;;;15.80;99.90;;;;;;4934286;29;20175;-69
2023/06/05 05:48:58;;;;;;;2.90;2.13;;;16.10;99.90;;;;;;4934164;29;20171;-68
2023/06/05 05:51:24;;;;;;;10.27;2.80;;;16.40;99.90;;;;;;4935147;29;20522;-69
2023/06/05 05:53:50;;;;;;;3.33;3.00;;;16.70;99.90;;;;;;4937608;29;20175;-69
2023/06/05 05:56:15;;;;;;;3.50;2.67;;;17.00;99.90;;;;;;4937518;29;20191;-69
2023/06/05 05:58:42;;;;;;;3.20;2.70;;;17.30;99.90;;;;;;4937495;29;20911;-69
2023/06/05 06:01:08;;;;;;;4.03;2.20;;;17.60;99.90;;;;;;4937243;29;20163;-70
2023/06/05 06:03:36;;;;;;;2.83;2.63;;;18.10;99.90;;;;;;4937554;29;20421;-70
2023/06/05 06:06:04;;;;;;;2.87;2.37;;;18.90;99.90;;;;;;4937456;29;20174;-70
2023/06/05 06:08:30;;;;;;;4.50;3.20;;;19.80;99.90;;;;;;4937401;29;20498;-71
2023/06/05 06:10:55;;;;;;;5.13;2.40;;;20.80;99.90;;;;;;4936922;29;20510;-70
2023/06/05 06:13:21;;;;;;;4.97;3.13;;;21.70;99.90;;;;;;4937191;29;20186;-69
2023/06/05 06:15:46;;;;;;;2.67;2.33;;;22.70;99.90;;;;;;4937262;29;20572;-69
2023/06/05 06:18:12;;;;;;;2.90;2.37;;;23.40;99.90;;;;;;4936734;29;20171;-69
2023/06/05 06:20:38;;;;;;;2.97;2.40;;;24.20;99.80;;;;;;4936936;29;20222;-69
2023/06/05 06:23:03;;;;;;;2.73;2.27;;;24.80;96.00;;;;;;4937026;29;20194;-68
2023/06/05 06:25:31;;;;;;;2.60;2.40;;;25.50;92.40;;;;;;4937092;29;20167;-68
2023/06/05 06:28:00;;;;;;;2.63;2.27;;;26.10;84.80;;;;;;4937160;29;20257;-69
2023/06/05 06:30:27;;;;;;;4.97;2.97;;;26.70;78.00;;;;;;4936754;29;20411;-69
2023/06/05 06:32:57;;;;;;;4.50;2.20;;;27.30;70.70;;;;;;4936919;29;20796;-69
2023/06/05 06:35:24;;;;;;;3.50;2.73;;;27.90;66.60;;;;;;4937078;29;20434;-69
2023/06/05 06:37:53;;;;;;;3.83;2.50;;;28.40;61.80;;;;;;4936811;29;21042;-70
2023/06/05 06:40:19;;;;;;;3.20;1.90;;;29.00;58.50;;;;;;4937720;29;21015;-67
2023/06/05 06:42:44;;;;;;;2.60;2.33;;;29.50;56.20;;;;;;4937409;29;20459;-68
2023/06/05 06:45:10;;;;;;;5.83;2.30;;;30.00;54.00;;;;;;4937555;29;20175;-67
2023/06/05 06:47:36;;;;;;;3.37;2.53;;;30.50;51.70;;;;;;4937196;29;20702;-68
2023/06/05 06:50:01;;;;;;;2.70;2.27;;;31.00;49.60;;;;;;4937152;29;20210;-68
2023/06/05 06:52:27;;;;;;;4.40;2.50;;;31.40;47.70;;;;;;4936322;29;20221;-68
2023/06/05 06:54:52;;;;;;;3.10;2.50;;;31.90;45.80;;;;;;4936611;29;20534;-68
2023/06/05 06:57:18;;;;;;;2.10;1.90;;;32.20;43.50;;;;;;4936437;29;20205;-68
2023/06/05 06:59:44;;;;;;;2.73;2.40;;;32.50;41.60;;;;;;4936621;29;20171;-68
2023/06/05 07:02:15;;;;;;;3.27;2.97;;;32.80;40.90;;;;;;4935616;29;20653;-69
2023/06/05 07:04:43;;;;;;;3.13;2.57;;;33.20;39.60;;;;;;4919411;29;20983;-68
2023/06/05 07:07:11;;;;;;;2.87;2.57;;;33.50;38.40;;;;;;4936346;29;20399;-68
2023/06/05 07:09:36;;;;;;;2.97;2.67;;;33.80;37.60;;;;;;4936365;29;20462;-68
2023/06/05 07:12:05;;;;;;;3.87;2.10;;;34.20;36.90;;;;;;4935878;29;20971;-68
2023/06/05 07:14:33;;;;;;;3.00;2.37;;;34.70;35.90;;;;;;4918981;29;20203;-68
2023/06/05 07:17:00;;;;;;;3.90;2.20;;;35.20;35.40;;;;;;4936188;29;20433;-68
2023/06/05 07:19:27;;;;;;;5.60;2.70;;;35.70;34.50;;;;;;4936176;29;20402;-68
2023/06/05 07:21:53;;;;;;;3.00;2.60;;;36.20;33.30;;;;;;4935757;29;20503;-68
2023/06/05 07:24:18;;;;;;;2.33;2.13;;;36.50;31.90;;;;;;4935909;29;20411;-68
2023/06/05 07:26:44;;;;;;;4.27;3.30;;;37.00;31.80;;;;;;4935943;29;20523;-68
2023/06/05 07:29:10;;;;;;;2.40;2.20;;;37.70;31.10;;;;;;4935643;29;20171;-69
2023/06/05 07:31:36;;;;;;;2.70;2.00;;;38.30;30.60;;;;;;4935520;29;20408;-68
2023/06/05 07:34:02;;;;;;;4.97;2.70;;;38.90;29.40;;;;;;4935875;29;20171;-68
2023/06/05 07:36:28;;;;;;;1.97;1.87;;;39.60;29.10;;;;;;4934534;29;20676;-68
2023/06/05 07:38:54;;;;;;;3.13;2.00;;;40.40;28.40;;;;;;4935805;29;20708;-68
2023/06/05 07:41:20;;;;;;;2.57;2.37;;;41.10;27.60;;;;;;4935379;29;20517;-69
2023/06/05 07:43:46;;;;;;;2.93;2.60;;;41.80;26.70;;;;;;4935617;29;20385;-69
2023/06/05 07:46:12;;;;;;;3.90;3.00;;;42.40;26.00;;;;;;4935630;29;20378;-69
2023/06/05 07:48:38;;;;;;;3.20;2.73;;;43.00;25.50;;;;;;4935611;29;20169;-69
2023/06/05 07:51:03;;;;;;;2.60;2.40;;;43.60;25.10;;;;;;4935492;29;20246;-68
2023/06/05 07:53:29;;;;;;;2.90;2.60;;;44.30;24.50;;;;;;4935567;29;20385;-69
2023/06/05 07:55:55;;;;;;;2.97;2.50;;;44.70;23.60;;;;;;4918323;29;20723;-69
2023/06/05 07:58:21;;;;;;;2.60;2.40;;;45.20;23.60;;;;;;4935385;29;20167;-69
2023/06/05 08:00:50;;;;;;;3.37;2.20;;;45.70;22.60;;;;;;4935145;29;20439;-69
2023/06/05 08:03:19;;;;;;;2.77;2.57;;;46.30;22.30;;;;;;4935302;29;20835;-69
2023/06/05 08:05:49;;;;;;;4.67;2.77;;;46.80;21.80;;;;;;4935342;29;20820;-70
2023/06/05 08:08:15;;;;;;;2.77;2.50;;;47.40;21.50;;;;;;4935332;29;20407;-69
2023/06/05 08:10:41;;;;;;;2.53;2.33;;;48.10;21.20;;;;;;4934889;29;20935;-70
2023/06/05 08:13:10;;;;;;;3.10;2.90;;;48.50;20.70;;;;;;4935176;29;20450;-70
2023/06/05 08:15:36;;;;;;;2.50;2.30;;;49.10;20.30;;;;;;4935229;29;20477;-70
2023/06/05 08:18:03;;;;;;;2.63;2.37;;;49.60;19.90;;;;;;4935086;29;20934;-69
2023/06/05 08:20:28;;;;;;;3.20;3.00;;;50.00;19.90;;;;;;4934853;29;20780;-70
2023/06/05 08:22:57;;;;;;;3.77;3.47;;;50.50;19.60;;;;;;4934940;29;20431;-69
2023/06/05 08:25:26;;;;;;;3.20;2.80;;;50.90;19.50;;;;;;4934939;29;20659;-70
2023/06/05 08:27:52;;;;;;;3.13;2.93;;;51.20;19.50;;;;;;4934915;29;20459;-70
2023/06/05 08:30:17;;;;;;;2.90;2.70;;;51.60;19.10;;;;;;4934950;29;20403;-70
2023/06/05 08:32:43;;;;;;;3.23;2.90;;;51.90;19.10;;;;;;4934781;29;20720;-70
2023/06/05 08:35:10;;;;;;;3.33;3.00;;;52.20;18.80;;;;;;4934874;29;20218;-70
2023/06/05 08:37:36;;;;;;;3.33;3.13;;;52.50;18.70;;;;;;4934927;29;20607;-70
2023/06/05 08:40:06;;;;;;;4.23;3.30;;;52.80;18.70;;;;;;4934753;29;20436;-70
2023/06/05 08:42:31;;;;;;;3.60;3.30;;;53.10;18.40;;;;;;4934735;29;20583;-70
2023/06/05 08:44:57;;;;;;;3.43;3.23;;;53.30;18.50;;;;;;4934879;29;20406;-70
2023/06/05 08:47:30;;;;;;;3.50;3.00;;;53.70;18.00;;;;;;4934730;29;20202;-70
2023/06/05 08:49:56;;;;;;;3.10;2.90;;;53.90;17.70;;;;;;4934801;29;20166;-69
2023/06/05 08:52:26;;;;;;;3.33;3.13;;;54.10;17.60;;;;;;4934338;29;20467;-69
2023/06/05 08:54:52;;;;;;;3.93;3.03;;;54.40;17.60;;;;;;4934856;29;20411;-70
2023/06/05 08:57:18;;;;;;;3.10;3.00;;;54.70;17.60;;;;;;4934735;29;20414;-70
2023/06/05 08:59:45;;;;;;;3.73;3.53;;;54.90;17.40;;;;;;4934711;29;20899;-70
2023/06/05 09:02:10;;;;;;;3.83;3.60;;;55.10;17.20;;;;;;4934371;29;20217;-70
2023/06/05 09:04:38;;;;;;;3.27;3.07;;;55.30;17.00;;;;;;4934637;29;20817;-69
2023/06/05 09:07:04;;;;;;;3.97;3.67;;;55.50;17.00;;;;;;4917460;29;20198;-69
2023/06/05 09:09:32;;;;;;;3.40;3.27;;;55.70;16.80;;;;;;4934599;29;20461;-69
2023/06/05 09:12:06;;;;;;;3.80;3.60;;;55.80;16.70;;;;;;4934223;29;20617;-69
2023/06/05 09:14:35;;;;;;;3.43;3.23;;;56.10;16.50;;;;;;4934464;29;20426;-70
2023/06/05 09:17:02;;;;;;;3.50;3.30;;;56.30;16.40;;;;;;4934528;29;20561;-69
2023/06/05 09:19:42;;;;;;;3.77;3.57;;;56.50;16.10;;;;;;4934383;29;20410;-69
2023/06/05 09:22:09;;;;;;;4.93;4.27;;;56.60;16.20;;;;;;4934176;29;20992;-69
2023/06/05 09:24:35;;;;;;;3.80;3.60;;;56.60;16.40;;;;;;4934441;29;20450;-69
2023/06/05 09:27:04;;;;;;;3.40;3.20;;;56.80;16.10;;;;;;4936911;29;20453;-69
2023/06/05 09:29:38;;;;;;;3.83;3.63;;;56.90;16.00;;;;;;4938129;29;20485;-69
2023/06/05 09:32:06;;;;;;;3.90;3.60;;;57.00;15.90;;;;;;4937769;29;20429;-70
2023/06/05 09:34:39;;;;;;;4.23;3.93;;;57.20;16.00;;;;;;4938041;29;20769;-70
2023/06/05 09:37:06;;;;;;;3.97;3.77;;;57.20;16.00;;;;;;4938041;29;20410;-70
2023/06/05 09:39:34;;;;;;;3.67;3.47;;;57.30;15.40;;;;;;4937976;29;20635;-70
2023/06/05 09:42:00;;;;;;;3.93;3.73;;;57.30;15.20;;;;;;4937642;29;20434;-70
2023/06/05 09:44:27;;;;;;;4.03;3.77;;;57.30;15.40;;;;;;4937859;29;20406;-70
2023/06/05 09:47:08;;;;;;;3.50;3.40;;;57.30;15.40;;;;;;4937741;29;20288;-70
2023/06/05 09:49:39;;;;;;;3.73;3.53;;;57.50;15.30;;;;;;4937812;29;20425;-70
2023/06/05 09:52:07;;;;;;;3.73;3.53;;;57.60;15.30;;;;;;4937762;29;20943;-70
2023/06/05 09:54:32;;;;;;;3.60;3.40;;;57.60;15.10;;;;;;4937614;29;20902;-69
2023/06/05 09:57:01;;;;;;;3.80;3.50;;;57.60;15.20;;;;;;4937603;29;20465;-70
2023/06/05 09:59:34;;;;;;;4.10;3.90;;;57.60;15.10;;;;;;4937633;29;20202;-69
2023/06/05 10:02:05;;;;;;;3.40;3.13;;;57.60;15.10;;;;;;4920165;29;20521;-71
2023/06/05 10:04:38;;;;;;;3.57;3.37;;;57.60;15.00;;;;;;4937538;29;20843;-70
2023/06/05 10:07:05;;;;;;;3.43;3.23;;;57.50;14.90;;;;;;4937424;29;20501;-70
2023/06/05 10:09:33;;;;;;;3.60;3.40;;;57.50;15.10;;;;;;4937343;29;20827;-70
2023/06/05 10:12:00;;;;;;;3.80;3.40;;;57.60;15.20;;;;;;4937103;29;20426;-70
2023/06/05 10:14:26;;;;;;;3.80;3.60;;;57.50;15.30;;;;;;4937351;29;20479;-70
2023/06/05 10:16:52;;;;;;;3.93;3.63;;;57.30;14.60;;;;;;4937311;29;20418;-69
2023/06/05 10:19:21;;;;;;;6.20;3.70;;;57.10;14.80;;;;;;4937311;29;20174;-70
2023/06/05 10:21:48;;;;;;;3.03;2.83;;;57.10;15.00;;;;;;4936996;29;20202;-70
2023/06/05 10:24:24;;;;;;;3.40;3.20;;;57.20;14.90;;;;;;4937037;29;20410;-70
2023/06/05 10:27:11;;;;;;;3.40;3.23;;;57.30;14.60;;;;;;4937109;29;20453;-69
2023/06/05 10:29:55;;;;;;;5.93;3.10;;;57.30;14.70;;;;;;4937053;29;20412;-70
2023/06/05 10:32:31;;;;;;;3.53;3.33;;;57.50;14.40;;;;;;4936606;29;20433;-71
2023/06/05 10:35:08;;;;;;;3.37;3.17;;;57.60;14.40;;;;;;4937057;29;20465;-70
2023/06/05 10:37:59;;;;;;;4.47;4.13;;;57.60;14.20;;;;;;4934585;29;20469;-70
2023/06/05 10:40:26;;;;;;;4.50;3.27;;;57.60;14.40;;;;;;4936732;29;20414;-70
2023/06/05 10:42:51;;;;;;;3.83;3.63;;;57.50;14.20;;;;;;4936569;29;20434;-70
2023/06/05 10:45:31;;;;;;;3.90;3.70;;;57.50;13.90;;;;;;4936724;29;20412;-70
2023/06/05 10:47:56;;;;;;;3.63;3.43;;;57.30;13.80;;;;;;4919632;29;20202;-70
2023/06/05 10:50:25;;;;;;;3.60;3.40;;;57.40;13.90;;;;;;4935203;29;20422;-69
2023/06/05 10:52:51;;;;;;;3.50;3.30;;;57.30;14.00;;;;;;4936550;29;20607;-70
2023/06/05 10:55:18;;;;;;;3.40;3.20;;;57.40;13.70;;;;;;4936558;29;20446;-70
2023/06/05 10:57:56;;;;;;;4.17;3.97;;;57.20;14.10;;;;;;4936554;29;20422;-70
2023/06/05 11:00:22;;;;;;;3.77;3.53;;;57.30;14.00;;;;;;4936416;29;20986;-70
2023/06/05 11:02:48;;;;;;;3.20;3.00;;;57.50;14.10;;;;;;4936305;29;20461;-70
2023/06/05 11:05:14;;;;;;;3.90;3.63;;;57.50;14.10;;;;;;4936506;29;20174;-70
2023/06/05 11:07:42;;;;;;;4.17;3.87;;;57.30;14.00;;;;;;4936217;29;20454;-70
2023/06/05 11:10:22;;;;;;;3.90;3.70;;;57.20;14.00;;;;;;4936286;29;20465;-70
2023/06/05 11:12:51;;;;;;;4.27;4.07;;;57.20;14.00;;;;;;4936215;29;20955;-70
2023/06/05 11:15:22;;;;;;;3.97;3.77;;;56.60;13.70;;;;;;4936205;29;20433;-70
2023/06/05 11:17:48;;;;;;;3.87;3.50;;;56.50;13.60;;;;;;4936281;29;20501;-69
2023/06/05 11:20:23;;;;;;;3.47;3.37;;;56.60;13.80;;;;;;4936100;29;20505;-69
2023/06/05 11:22:55;;;;;;;4.47;3.60;;;56.80;13.90;;;;;;4935977;29;20268;-70
2023/06/05 11:25:21;;;;;;;4.33;4.00;;;57.20;13.70;;;;;;4936036;29;20493;-70
2023/06/05 11:27:48;;;;;;;3.50;3.30;;;57.30;13.50;;;;;;4936025;29;20532;-70
2023/06/05 11:30:16;;;;;;;3.63;3.37;;;57.40;13.80;;;;;;4936032;29;20174;-69
2023/06/05 11:32:42;;;;;;;4.30;4.00;;;57.50;13.80;;;;;;4935637;29;20427;-69
2023/06/05 11:35:08;;;;;;;6.10;5.70;;;57.70;13.40;;;;;;4935875;29;20903;-69
2023/06/05 11:37:34;;;;;;;4.10;3.90;;;57.80;13.00;;;;;;4936028;29;20198;-69
2023/06/05 11:40:09;;;;;;;3.87;3.67;;;57.50;12.80;;;;;;4935836;29;20923;-69
2023/06/05 11:42:39;;;;;;;4.30;4.00;;;57.60;13.00;;;;;;4935816;29;20201;-68
2023/06/05 11:45:11;;;;;;;3.63;3.43;;;57.80;12.90;;;;;;4935867;29;20896;-70
2023/06/05 11:47:37;;;;;;;4.20;3.90;;;57.90;12.60;;;;;;4935569;29;20804;-70
2023/06/05 11:50:14;;;;;;;4.83;4.53;;;58.00;12.40;;;;;;4935331;29;20406;-70
2023/06/05 11:52:41;;;;;;;4.10;3.90;;;57.90;12.90;;;;;;4935257;29;20613;-70
2023/06/05 11:55:19;;;;;;;3.80;3.50;;;57.80;12.70;;;;;;4934563;29;20449;-69
2023/06/05 11:57:49;;;;;;;4.47;4.07;;;57.70;12.90;;;;;;4935550;29;20413;-70
2023/06/05 12:00:16;;;;;;;3.63;3.43;;;57.60;12.90;;;;;;4935365;29;20931;-70
2023/06/05 12:02:42;;;;;;;3.90;3.70;;;57.40;13.10;;;;;;4935154;29;20987;-70
2023/06/05 12:05:11;;;;;;;9.40;4.10;;;57.10;13.20;;;;;;4935344;29;20775;-69
2023/06/05 12:07:39;;;;;;;8.60;3.10;;;56.90;13.40;;;;;;4935164;29;20468;-70
2023/06/05 12:10:06;;;;;;;3.50;3.30;;;56.70;13.60;;;;;;4935226;29;20418;-69
2023/06/05 12:12:48;;;;;;;3.40;3.20;;;56.50;13.60;;;;;;4934821;29;20449;-69
2023/06/05 12:15:18;;;;;;;4.70;3.90;;;56.40;13.90;;;;;;4935104;29;20513;-69
2023/06/05 12:17:51;;;;;;;3.97;3.70;;;56.10;13.20;;;;;;4935155;29;20550;-70
2023/06/05 12:20:18;;;;;;;3.67;3.37;;;55.80;13.60;;;;;;4935007;29;20413;-70
2023/06/05 12:22:44;;;;;;;3.23;2.93;;;55.60;13.60;;;;;;4934782;29;20442;-69
2023/06/05 12:25:18;;;;;;;3.03;2.90;;;55.30;13.50;;;;;;4935087;29;20407;-70
2023/06/05 12:27:47;;;;;;;3.50;3.30;;;55.30;13.90;;;;;;4934929;29;20452;-69
2023/06/05 12:30:16;;;;;;;3.87;3.47;;;55.40;13.90;;;;;;4934918;29;20406;-69
2023/06/05 12:32:45;;;;;;;4.57;3.27;;;55.30;14.30;;;;;;4934604;29;20437;-69
2023/06/05 12:35:24;;;;;;;3.30;3.10;;;54.90;13.90;;;;;;4934822;29;20417;-70
2023/06/05 12:37:51;;;;;;;3.33;3.13;;;54.60;14.30;;;;;;4934878;29;20413;-70
2023/06/05 12:40:20;;;;;;;3.50;3.10;;;54.30;14.10;;;;;;4934915;29;20406;-70
2023/06/05 12:42:47;;;;;;;3.57;3.03;;;54.00;14.30;;;;;;4934601;29;20926;-69
2023/06/05 12:45:13;;;;;;;3.67;3.37;;;53.60;14.30;;;;;;4934793;29;20415;-70
2023/06/05 12:47:40;;;;;;;3.60;3.33;;;53.20;14.00;;;;;;4933491;29;20458;-70
2023/06/05 12:50:07;;;;;;;2.93;2.73;;;53.10;14.50;;;;;;4934548;29;20927;-68